sensor_id;sensor_type;location;lat;lon;timestamp;temperature;humidity
16412;DHT22;8315;52.104;6.304;2023-02-27T00:01:35;2.20;98.40
16412;DHT22;8315;52.104;6.304;2023-02-27T00:04:03;2.10;98.40
16412;DHT22;8315;52.104;6.304;2023-02-27T00:06:30;2.10;98.40
16412;DHT22;8315;52.104;6.304;2023-02-27T00:08:57;2.10;98.40
16412;DHT22;8315;52.104;6.304;2023-02-27T00:11:24;2.10;98.40
16412;DHT22;8315;52.104;6.304;2023-02-27T00:13:52;2.10;98.40
16412;DHT22;8315;52.104;6.304;2023-02-27T00:16:18;2.10;98.40
16412;DHT22;8315;52.104;6.304;2023-02-27T00:18:45;2.20;98.40
16412;DHT22;8315;52.104;6.304;2023-02-27T00:21:12;2.20;98.40
16412;DHT22;8315;52.104;6.304;2023-02-27T00:23:39;2.20;98.40
16412;DHT22;8315;52.104;6.304;2023-02-27T00:26:06;2.20;98.40
16412;DHT22;8315;52.104;6.304;2023-02-27T00:28:32;2.10;98.40
16412;DHT22;8315;52.104;6.304;2023-02-27T00:31:01;2.20;98.40
16412;DHT22;8315;52.104;6.304;2023-02-27T00:33:29;2.20;98.40
16412;DHT22;8315;52.104;6.304;2023-02-27T00:35:56;2.20;98.40
16412;DHT22;8315;52.104;6.304;2023-02-27T00:38:23;2.20;98.40
16412;DHT22;8315;52.104;6.304;2023-02-27T00:40:50;2.10;98.40
16412;DHT22;8315;52.104;6.304;2023-02-27T00:43:17;2.10;98.40
16412;DHT22;8315;52.104;6.304;2023-02-27T00:45:45;2.10;98.40
16412;DHT22;8315;52.104;6.304;2023-02-27T00:48:14;2.00;98.40
16412;DHT22;8315;52.104;6.304;2023-02-27T00:50:41;2.00;98.40
16412;DHT22;8315;52.104;6.304;2023-02-27T00:53:08;1.90;98.40
16412;DHT22;8315;52.104;6.304;2023-02-27T00:55:35;1.90;98.40
16412;DHT22;8315;52.104;6.304;2023-02-27T00:58:02;1.90;98.40
16412;DHT22;8315;52.104;6.304;2023-02-27T01:00:30;1.90;98.40
16412;DHT22;8315;52.104;6.304;2023-02-27T01:02:56;1.80;98.40
16412;DHT22;8315;52.104;6.304;2023-02-27T01:05:25;1.80;98.40
16412;DHT22;8315;52.104;6.304;2023-02-27T01:07:51;1.90;98.40
16412;DHT22;8315;52.104;6.304;2023-02-27T01:10:19;1.90;98.40
16412;DHT22;8315;52.104;6.304;2023-02-27T01:12:46;1.90;98.40
16412;DHT22;8315;52.104;6.304;2023-02-27T01:15:13;1.80;98.40
16412;DHT22;8315;52.104;6.304;2023-02-27T01:17:40;1.80;98.40
16412;DHT22;8315;52.104;6.304;2023-02-27T01:20:09;1.70;98.40
16412;DHT22;8315;52.104;6.304;2023-02-27T01:22:39;1.60;98.40
16412;DHT22;8315;52.104;6.304;2023-02-27T01:25:06;1.50;98.40
16412;DHT22;8315;52.104;6.304;2023-02-27T01:27:34;1.50;98.40
16412;DHT22;8315;52.104;6.304;2023-02-27T01:30:04;1.40;98.40
16412;DHT22;8315;52.104;6.304;2023-02-27T01:32:31;1.40;98.40
16412;DHT22;8315;52.104;6.304;2023-02-27T01:34:58;1.30;98.40
16412;DHT22;8315;52.104;6.304;2023-02-27T01:37:25;1.30;98.40
16412;DHT22;8315;52.104;6.304;2023-02-27T01:39:53;1.20;98.40
16412;DHT22;8315;52.104;6.304;2023-02-27T01:42:20;1.20;98.40
16412;DHT22;8315;52.104;6.304;2023-02-27T01:45:17;1.30;98.40
16412;DHT22;8315;52.104;6.304;2023-02-27T01:47:53;1.20;98.40
16412;DHT22;8315;52.104;6.304;2023-02-27T01:50:21;1.10;98.40
16412;DHT22;8315;52.104;6.304;2023-02-27T01:52:50;1.00;98.40
16412;DHT22;8315;52.104;6.304;2023-02-27T01:55:21;1.00;98.40
16412;DHT22;8315;52.104;6.304;2023-02-27T01:57:51;0.90;98.40
16412;DHT22;8315;52.104;6.304;2023-02-27T02:00:18;1.00;98.40
16412;DHT22;8315;52.104;6.304;2023-02-27T02:02:48;1.00;98.40
16412;DHT22;8315;52.104;6.304;2023-02-27T02:05:18;1.00;98.40
16412;DHT22;8315;52.104;6.304;2023-02-27T02:07:46;0.70;98.40
16412;DHT22;8315;52.104;6.304;2023-02-27T02:10:14;0.80;98.40
16412;DHT22;8315;52.104;6.304;2023-02-27T02:12:43;0.80;98.40
16412;DHT22;8315;52.104;6.304;2023-02-27T02:15:11;0.80;98.40
16412;DHT22;8315;52.104;6.304;2023-02-27T02:17:40;0.70;98.40
16412;DHT22;8315;52.104;6.304;2023-02-27T02:20:26;0.80;98.40
16412;DHT22;8315;52.104;6.304;2023-02-27T02:26:30;0.80;98.40
16412;DHT22;8315;52.104;6.304;2023-02-27T02:35:37;0.80;98.40
16412;DHT22;8315;52.104;6.304;2023-02-27T02:41:09;0.70;98.40
16412;DHT22;8315;52.104;6.304;2023-02-27T02:43:43;0.70;98.40
16412;DHT22;8315;52.104;6.304;2023-02-27T02:46:19;0.60;98.40
16412;DHT22;8315;52.104;6.304;2023-02-27T02:48:50;0.60;98.40
16412;DHT22;8315;52.104;6.304;2023-02-27T02:51:22;0.60;98.40
16412;DHT22;8315;52.104;6.304;2023-02-27T02:53:58;0.60;98.40
16412;DHT22;8315;52.104;6.304;2023-02-27T02:56:30;0.60;98.40
16412;DHT22;8315;52.104;6.304;2023-02-27T02:58:59;0.50;98.40
16412;DHT22;8315;52.104;6.304;2023-02-27T03:01:30;0.50;98.40
16412;DHT22;8315;52.104;6.304;2023-02-27T03:04:02;0.40;98.40
16412;DHT22;8315;52.104;6.304;2023-02-27T03:06:32;0.40;98.40
16412;DHT22;8315;52.104;6.304;2023-02-27T03:09:04;0.30;98.40
16412;DHT22;8315;52.104;6.304;2023-02-27T03:11:33;0.30;98.40
16412;DHT22;8315;52.104;6.304;2023-02-27T03:14:02;0.30;98.40
16412;DHT22;8315;52.104;6.304;2023-02-27T03:16:33;0.30;98.40
16412;DHT22;8315;52.104;6.304;2023-02-27T03:19:03;0.20;98.40
16412;DHT22;8315;52.104;6.304;2023-02-27T03:21:34;0.20;98.40
16412;DHT22;8315;52.104;6.304;2023-02-27T03:24:05;0.30;98.40
16412;DHT22;8315;52.104;6.304;2023-02-27T03:26:36;0.30;98.40
16412;DHT22;8315;52.104;6.304;2023-02-27T03:29:06;0.30;98.40
16412;DHT22;8315;52.104;6.304;2023-02-27T03:31:36;0.30;98.40
16412;DHT22;8315;52.104;6.304;2023-02-27T03:34:07;0.10;98.40
16412;DHT22;8315;52.104;6.304;2023-02-27T03:36:40;0.00;98.40
16412;DHT22;8315;52.104;6.304;2023-02-27T03:39:14;0.00;98.40
16412;DHT22;8315;52.104;6.304;2023-02-27T03:41:49;0.00;98.40
16412;DHT22;8315;52.104;6.304;2023-02-27T03:44:39;0.00;98.40
16412;DHT22;8315;52.104;6.304;2023-02-27T03:47:13;0.00;98.40
16412;DHT22;8315;52.104;6.304;2023-02-27T03:49:40;0.00;98.40
16412;DHT22;8315;52.104;6.304;2023-02-27T03:52:07;0.00;98.40
16412;DHT22;8315;52.104;6.304;2023-02-27T03:54:36;0.00;98.40
16412;DHT22;8315;52.104;6.304;2023-02-27T03:57:07;0.00;98.40
16412;DHT22;8315;52.104;6.304;2023-02-27T03:59:34;-0.10;98.40
16412;DHT22;8315;52.104;6.304;2023-02-27T04:02:02;0.00;98.40
16412;DHT22;8315;52.104;6.304;2023-02-27T04:04:30;0.00;98.40
16412;DHT22;8315;52.104;6.304;2023-02-27T04:07:28;0.00;98.40
16412;DHT22;8315;52.104;6.304;2023-02-27T04:10:03;0.00;98.40
16412;DHT22;8315;52.104;6.304;2023-02-27T04:12:50;0.00;98.40
16412;DHT22;8315;52.104;6.304;2023-02-27T04:15:23;0.00;98.40
16412;DHT22;8315;52.104;6.304;2023-02-27T04:17:55;-0.10;98.40
16412;DHT22;8315;52.104;6.304;2023-02-27T04:20:28;-0.10;98.40
16412;DHT22;8315;52.104;6.304;2023-02-27T04:23:03;-0.20;98.40
16412;DHT22;8315;52.104;6.304;2023-02-27T04:25:35;-0.20;98.40
16412;DHT22;8315;52.104;6.304;2023-02-27T04:28:13;-0.20;98.40
16412;DHT22;8315;52.104;6.304;2023-02-27T04:30:44;-0.20;98.40
16412;DHT22;8315;52.104;6.304;2023-02-27T04:33:13;-0.30;98.40
16412;DHT22;8315;52.104;6.304;2023-02-27T04:35:47;-0.40;98.40
16412;DHT22;8315;52.104;6.304;2023-02-27T04:38:17;-0.40;98.40
16412;DHT22;8315;52.104;6.304;2023-02-27T04:40:48;-0.40;98.40
16412;DHT22;8315;52.104;6.304;2023-02-27T04:43:17;-0.30;98.40
16412;DHT22;8315;52.104;6.304;2023-02-27T04:45:46;-0.40;98.40
16412;DHT22;8315;52.104;6.304;2023-02-27T04:48:16;-0.50;98.40
16412;DHT22;8315;52.104;6.304;2023-02-27T04:50:45;-0.40;98.40
16412;DHT22;8315;52.104;6.304;2023-02-27T04:53:17;-0.50;98.40
16412;DHT22;8315;52.104;6.304;2023-02-27T04:55:48;-0.50;98.40
16412;DHT22;8315;52.104;6.304;2023-02-27T04:58:17;-0.50;98.40
16412;DHT22;8315;52.104;6.304;2023-02-27T05:00:46;-0.40;98.40
16412;DHT22;8315;52.104;6.304;2023-02-27T05:03:16;-0.50;98.40
16412;DHT22;8315;52.104;6.304;2023-02-27T05:05:45;-0.40;98.40
16412;DHT22;8315;52.104;6.304;2023-02-27T05:08:14;-0.60;98.40
16412;DHT22;8315;52.104;6.304;2023-02-27T05:10:44;-0.50;98.40
16412;DHT22;8315;52.104;6.304;2023-02-27T05:13:15;-0.50;98.40
16412;DHT22;8315;52.104;6.304;2023-02-27T05:15:45;-0.60;98.40
16412;DHT22;8315;52.104;6.304;2023-02-27T05:18:14;-0.50;98.40
16412;DHT22;8315;52.104;6.304;2023-02-27T05:20:46;-0.50;98.40
16412;DHT22;8315;52.104;6.304;2023-02-27T05:23:20;-0.50;98.40
16412;DHT22;8315;52.104;6.304;2023-02-27T05:25:53;-0.50;98.40
16412;DHT22;8315;52.104;6.304;2023-02-27T05:28:23;-0.50;98.40
16412;DHT22;8315;52.104;6.304;2023-02-27T05:30:55;-0.50;98.40
16412;DHT22;8315;52.104;6.304;2023-02-27T05:33:24;-0.60;98.40
16412;DHT22;8315;52.104;6.304;2023-02-27T05:35:54;-0.50;98.40
16412;DHT22;8315;52.104;6.304;2023-02-27T05:38:24;-0.50;98.40
16412;DHT22;8315;52.104;6.304;2023-02-27T05:40:52;-0.60;98.40
16412;DHT22;8315;52.104;6.304;2023-02-27T05:43:24;-0.50;98.40
16412;DHT22;8315;52.104;6.304;2023-02-27T05:45:55;-0.50;98.40
16412;DHT22;8315;52.104;6.304;2023-02-27T05:48:24;-0.60;98.40
16412;DHT22;8315;52.104;6.304;2023-02-27T05:50:53;-0.60;98.40
16412;DHT22;8315;52.104;6.304;2023-02-27T05:53:21;-0.60;98.40
16412;DHT22;8315;52.104;6.304;2023-02-27T05:55:51;-0.60;98.40
16412;DHT22;8315;52.104;6.304;2023-02-27T05:58:20;-0.60;98.40
16412;DHT22;8315;52.104;6.304;2023-02-27T06:00:52;-0.60;98.40
16412;DHT22;8315;52.104;6.304;2023-02-27T06:03:20;-0.60;98.40
16412;DHT22;8315;52.104;6.304;2023-02-27T06:05:47;-0.50;98.40
16412;DHT22;8315;52.104;6.304;2023-02-27T06:08:17;-0.50;98.40
16412;DHT22;8315;52.104;6.304;2023-02-27T06:10:44;-0.50;98.40
16412;DHT22;8315;52.104;6.304;2023-02-27T06:13:11;-0.60;98.40
16412;DHT22;8315;52.104;6.304;2023-02-27T06:15:40;-0.50;98.40
16412;DHT22;8315;52.104;6.304;2023-02-27T06:18:07;-0.50;98.40
16412;DHT22;8315;52.104;6.304;2023-02-27T06:20:35;-0.50;98.40
16412;DHT22;8315;52.104;6.304;2023-02-27T06:23:02;-0.50;98.40
16412;DHT22;8315;52.104;6.304;2023-02-27T06:25:29;-0.50;98.40
16412;DHT22;8315;52.104;6.304;2023-02-27T06:27:56;-0.60;98.40
16412;DHT22;8315;52.104;6.304;2023-02-27T06:30:22;-0.60;98.40
16412;DHT22;8315;52.104;6.304;2023-02-27T06:32:51;-0.60;98.40
16412;DHT22;8315;52.104;6.304;2023-02-27T06:35:18;-0.50;98.40
16412;DHT22;8315;52.104;6.304;2023-02-27T06:37:45;-0.60;98.40
16412;DHT22;8315;52.104;6.304;2023-02-27T06:40:12;-0.60;98.40
16412;DHT22;8315;52.104;6.304;2023-02-27T06:42:39;-0.60;98.40
16412;DHT22;8315;52.104;6.304;2023-02-27T06:45:07;-0.60;98.40
16412;DHT22;8315;52.104;6.304;2023-02-27T06:47:35;-0.60;98.40
16412;DHT22;8315;52.104;6.304;2023-02-27T06:50:04;-0.50;98.40
16412;DHT22;8315;52.104;6.304;2023-02-27T06:52:32;-0.50;98.40
16412;DHT22;8315;52.104;6.304;2023-02-27T06:54:59;-0.50;98.40
16412;DHT22;8315;52.104;6.304;2023-02-27T06:57:25;-0.50;98.40
16412;DHT22;8315;52.104;6.304;2023-02-27T06:59:52;-0.50;98.40
16412;DHT22;8315;52.104;6.304;2023-02-27T07:02:19;-0.60;98.40
16412;DHT22;8315;52.104;6.304;2023-02-27T07:04:47;-0.50;98.40
16412;DHT22;8315;52.104;6.304;2023-02-27T07:07:16;-0.50;98.40
16412;DHT22;8315;52.104;6.304;2023-02-27T07:09:42;-0.60;98.40
16412;DHT22;8315;52.104;6.304;2023-02-27T07:12:09;-0.60;98.40
16412;DHT22;8315;52.104;6.304;2023-02-27T07:14:36;-0.60;98.40
16412;DHT22;8315;52.104;6.304;2023-02-27T07:17:03;-0.50;98.40
16412;DHT22;8315;52.104;6.304;2023-02-27T07:19:30;-0.50;98.40
16412;DHT22;8315;52.104;6.304;2023-02-27T07:21:58;-0.40;98.40
16412;DHT22;8315;52.104;6.304;2023-02-27T07:24:26;-0.40;98.40
16412;DHT22;8315;52.104;6.304;2023-02-27T07:26:53;-0.40;98.40
16412;DHT22;8315;52.104;6.304;2023-02-27T07:29:19;-0.30;98.40
16412;DHT22;8315;52.104;6.304;2023-02-27T07:31:46;-0.20;98.40
16412;DHT22;8315;52.104;6.304;2023-02-27T07:34:13;-0.10;98.40
16412;DHT22;8315;52.104;6.304;2023-02-27T07:36:40;-0.10;98.40
16412;DHT22;8315;52.104;6.304;2023-02-27T07:39:07;0.00;98.40
16412;DHT22;8315;52.104;6.304;2023-02-27T07:41:36;0.10;98.40
16412;DHT22;8315;52.104;6.304;2023-02-27T07:44:04;0.20;98.40
16412;DHT22;8315;52.104;6.304;2023-02-27T07:46:33;0.20;98.40
16412;DHT22;8315;52.104;6.304;2023-02-27T07:49:00;0.20;98.40
16412;DHT22;8315;52.104;6.304;2023-02-27T07:51:27;0.30;98.40
16412;DHT22;8315;52.104;6.304;2023-02-27T07:53:54;0.40;98.40
16412;DHT22;8315;52.104;6.304;2023-02-27T07:56:22;0.50;98.40
16412;DHT22;8315;52.104;6.304;2023-02-27T07:58:50;0.50;98.40
16412;DHT22;8315;52.104;6.304;2023-02-27T08:01:17;0.50;98.40
16412;DHT22;8315;52.104;6.304;2023-02-27T08:03:44;0.60;98.40
16412;DHT22;8315;52.104;6.304;2023-02-27T08:06:11;0.60;98.40
16412;DHT22;8315;52.104;6.304;2023-02-27T08:08:37;0.70;98.40
16412;DHT22;8315;52.104;6.304;2023-02-27T08:11:04;0.60;98.40
16412;DHT22;8315;52.104;6.304;2023-02-27T08:13:31;0.70;98.40
16412;DHT22;8315;52.104;6.304;2023-02-27T08:15:59;0.80;98.40
16412;DHT22;8315;52.104;6.304;2023-02-27T08:18:26;0.90;98.40
16412;DHT22;8315;52.104;6.304;2023-02-27T08:20:53;0.90;98.40
16412;DHT22;8315;52.104;6.304;2023-02-27T08:23:20;1.00;98.40
16412;DHT22;8315;52.104;6.304;2023-02-27T08:25:47;1.10;98.40
16412;DHT22;8315;52.104;6.304;2023-02-27T08:28:14;1.20;98.40
16412;DHT22;8315;52.104;6.304;2023-02-27T08:30:42;1.30;98.40
16412;DHT22;8315;52.104;6.304;2023-02-27T08:33:10;1.40;98.40
16412;DHT22;8315;52.104;6.304;2023-02-27T08:35:37;1.50;98.40
16412;DHT22;8315;52.104;6.304;2023-02-27T08:38:04;1.60;98.40
16412;DHT22;8315;52.104;6.304;2023-02-27T08:40:31;1.60;98.40
16412;DHT22;8315;52.104;6.304;2023-02-27T08:42:58;1.70;98.40
16412;DHT22;8315;52.104;6.304;2023-02-27T08:45:25;1.90;98.40
16412;DHT22;8315;52.104;6.304;2023-02-27T08:47:52;1.90;98.40
16412;DHT22;8315;52.104;6.304;2023-02-27T08:50:20;2.10;98.40
16412;DHT22;8315;52.104;6.304;2023-02-27T08:52:48;2.20;98.40
16412;DHT22;8315;52.104;6.304;2023-02-27T08:55:14;2.30;98.40
16412;DHT22;8315;52.104;6.304;2023-02-27T08:57:42;2.50;98.40
16412;DHT22;8315;52.104;6.304;2023-02-27T09:00:09;2.70;98.40
16412;DHT22;8315;52.104;6.304;2023-02-27T09:02:39;2.90;98.40
16412;DHT22;8315;52.104;6.304;2023-02-27T09:05:06;3.00;98.40
16412;DHT22;8315;52.104;6.304;2023-02-27T09:07:35;3.30;98.40
16412;DHT22;8315;52.104;6.304;2023-02-27T09:10:02;3.50;98.40
16412;DHT22;8315;52.104;6.304;2023-02-27T09:12:29;3.80;98.40
16412;DHT22;8315;52.104;6.304;2023-02-27T09:14:56;4.00;98.40
16412;DHT22;8315;52.104;6.304;2023-02-27T09:17:23;4.20;98.40
16412;DHT22;8315;52.104;6.304;2023-02-27T09:19:50;4.40;98.40
16412;DHT22;8315;52.104;6.304;2023-02-27T09:22:16;4.50;98.40
16412;DHT22;8315;52.104;6.304;2023-02-27T09:24:45;4.70;98.40
16412;DHT22;8315;52.104;6.304;2023-02-27T09:27:12;4.90;98.40
16412;DHT22;8315;52.104;6.304;2023-02-27T09:29:39;5.00;98.40
16412;DHT22;8315;52.104;6.304;2023-02-27T09:32:06;4.90;98.40
16412;DHT22;8315;52.104;6.304;2023-02-27T09:34:33;5.10;98.40
16412;DHT22;8315;52.104;6.304;2023-02-27T09:37:00;5.10;98.40
16412;DHT22;8315;52.104;6.304;2023-02-27T09:39:27;5.40;98.40
16412;DHT22;8315;52.104;6.304;2023-02-27T09:41:57;5.50;98.40
16412;DHT22;8315;52.104;6.304;2023-02-27T09:44:34;5.60;98.40
16412;DHT22;8315;52.104;6.304;2023-02-27T09:47:03;5.30;98.40
16412;DHT22;8315;52.104;6.304;2023-02-27T09:49:32;5.10;98.40
16412;DHT22;8315;52.104;6.304;2023-02-27T09:52:00;5.00;98.40
16412;DHT22;8315;52.104;6.304;2023-02-27T09:54:28;4.90;98.40
16412;DHT22;8315;52.104;6.304;2023-02-27T09:56:59;4.90;98.40
16412;DHT22;8315;52.104;6.304;2023-02-27T09:59:30;4.90;98.40
16412;DHT22;8315;52.104;6.304;2023-02-27T10:02:01;4.90;98.40
16412;DHT22;8315;52.104;6.304;2023-02-27T10:04:36;4.90;98.40
16412;DHT22;8315;52.104;6.304;2023-02-27T10:07:11;5.10;98.40
16412;DHT22;8315;52.104;6.304;2023-02-27T10:09:42;5.10;98.40
16412;DHT22;8315;52.104;6.304;2023-02-27T10:12:33;5.20;98.40
16412;DHT22;8315;52.104;6.304;2023-02-27T10:15:09;5.30;98.40
16412;DHT22;8315;52.104;6.304;2023-02-27T10:17:37;5.30;98.40
16412;DHT22;8315;52.104;6.304;2023-02-27T10:20:06;5.40;98.40
16412;DHT22;8315;52.104;6.304;2023-02-27T10:22:37;5.40;98.40
16412;DHT22;8315;52.104;6.304;2023-02-27T10:25:08;5.40;98.40
16412;DHT22;8315;52.104;6.304;2023-02-27T10:27:39;5.50;98.40
16412;DHT22;8315;52.104;6.304;2023-02-27T10:30:15;5.60;98.40
16412;DHT22;8315;52.104;6.304;2023-02-27T10:32:44;5.80;98.40
16412;DHT22;8315;52.104;6.304;2023-02-27T10:35:16;6.00;98.40
16412;DHT22;8315;52.104;6.304;2023-02-27T10:37:49;6.00;98.40
16412;DHT22;8315;52.104;6.304;2023-02-27T10:40:19;6.10;97.70
16412;DHT22;8315;52.104;6.304;2023-02-27T10:42:50;6.20;98.20
16412;DHT22;8315;52.104;6.304;2023-02-27T10:45:19;6.00;96.70
16412;DHT22;8315;52.104;6.304;2023-02-27T10:47:45;6.10;97.90
16412;DHT22;8315;52.104;6.304;2023-02-27T10:50:19;6.20;96.40
16412;DHT22;8315;52.104;6.304;2023-02-27T10:52:52;6.30;97.10
16412;DHT22;8315;52.104;6.304;2023-02-27T10:55:22;6.40;96.30
16412;DHT22;8315;52.104;6.304;2023-02-27T10:57:52;6.30;95.90
16412;DHT22;8315;52.104;6.304;2023-02-27T11:00:29;6.50;95.00
16412;DHT22;8315;52.104;6.304;2023-02-27T11:03:00;6.50;95.80
16412;DHT22;8315;52.104;6.304;2023-02-27T11:05:27;6.80;96.10
16412;DHT22;8315;52.104;6.304;2023-02-27T11:07:57;6.70;93.20
16412;DHT22;8315;52.104;6.304;2023-02-27T11:10:37;6.70;94.20
16412;DHT22;8315;52.104;6.304;2023-02-27T11:13:21;6.80;93.60
16412;DHT22;8315;52.104;6.304;2023-02-27T11:16:00;6.80;93.60
16412;DHT22;8315;52.104;6.304;2023-02-27T11:18:29;6.60;93.70
16412;DHT22;8315;52.104;6.304;2023-02-27T11:21:07;6.60;93.60
16412;DHT22;8315;52.104;6.304;2023-02-27T11:23:37;6.50;93.10
16412;DHT22;8315;52.104;6.304;2023-02-27T11:26:08;6.60;92.80
16412;DHT22;8315;52.104;6.304;2023-02-27T11:28:38;6.90;91.40
16412;DHT22;8315;52.104;6.304;2023-02-27T11:31:05;6.90;90.00
16412;DHT22;8315;52.104;6.304;2023-02-27T11:33:48;7.10;90.90
16412;DHT22;8315;52.104;6.304;2023-02-27T11:36:17;7.20;91.20
16412;DHT22;8315;52.104;6.304;2023-02-27T11:38:49;7.30;92.00
16412;DHT22;8315;52.104;6.304;2023-02-27T11:41:17;7.50;90.20
16412;DHT22;8315;52.104;6.304;2023-02-27T11:43:47;7.70;89.80
16412;DHT22;8315;52.104;6.304;2023-02-27T11:46:18;7.70;89.20
16412;DHT22;8315;52.104;6.304;2023-02-27T11:48:46;7.40;89.30
16412;DHT22;8315;52.104;6.304;2023-02-27T11:51:17;7.60;90.00
16412;DHT22;8315;52.104;6.304;2023-02-27T11:56:47;7.40;88.20
16412;DHT22;8315;52.104;6.304;2023-02-27T11:59:26;7.20;88.50
16412;DHT22;8315;52.104;6.304;2023-02-27T12:01:58;6.90;88.10
16412;DHT22;8315;52.104;6.304;2023-02-27T12:04:28;6.70;88.40
16412;DHT22;8315;52.104;6.304;2023-02-27T12:07:04;6.60;89.20
16412;DHT22;8315;52.104;6.304;2023-02-27T12:09:38;6.50;89.10
16412;DHT22;8315;52.104;6.304;2023-02-27T12:12:10;6.70;89.30
16412;DHT22;8315;52.104;6.304;2023-02-27T12:14:45;6.90;89.30
16412;DHT22;8315;52.104;6.304;2023-02-27T12:17:17;7.00;89.20
16412;DHT22;8315;52.104;6.304;2023-02-27T12:19:50;7.30;89.30
16412;DHT22;8315;52.104;6.304;2023-02-27T12:22:25;7.90;88.80
16412;DHT22;8315;52.104;6.304;2023-02-27T12:24:56;7.70;87.10
16412;DHT22;8315;52.104;6.304;2023-02-27T12:27:28;7.60;90.10
16412;DHT22;8315;52.104;6.304;2023-02-27T12:30:01;7.70;89.30
16412;DHT22;8315;52.104;6.304;2023-02-27T12:32:32;7.50;89.40
16412;DHT22;8315;52.104;6.304;2023-02-27T12:35:05;7.40;89.80
16412;DHT22;8315;52.104;6.304;2023-02-27T12:37:38;7.30;91.40
16412;DHT22;8315;52.104;6.304;2023-02-27T12:40:05;7.20;91.20
16412;DHT22;8315;52.104;6.304;2023-02-27T12:42:40;7.20;92.50
16412;DHT22;8315;52.104;6.304;2023-02-27T12:45:20;7.10;92.30
16412;DHT22;8315;52.104;6.304;2023-02-27T12:47:54;7.00;91.90
16412;DHT22;8315;52.104;6.304;2023-02-27T12:50:27;6.80;92.40
16412;DHT22;8315;52.104;6.304;2023-02-27T12:53:01;7.30;92.90
16412;DHT22;8315;52.104;6.304;2023-02-27T12:55:31;7.70;90.00
16412;DHT22;8315;52.104;6.304;2023-02-27T13:00:50;8.10;88.60
16412;DHT22;8315;52.104;6.304;2023-02-27T13:03:24;7.70;87.60
16412;DHT22;8315;52.104;6.304;2023-02-27T13:05:56;7.40;88.90
16412;DHT22;8315;52.104;6.304;2023-02-27T13:08:37;7.30;89.30
16412;DHT22;8315;52.104;6.304;2023-02-27T13:11:21;7.30;89.20
16412;DHT22;8315;52.104;6.304;2023-02-27T13:13:51;7.10;89.30
16412;DHT22;8315;52.104;6.304;2023-02-27T13:16:23;7.20;89.80
16412;DHT22;8315;52.104;6.304;2023-02-27T13:18:53;7.30;89.10
16412;DHT22;8315;52.104;6.304;2023-02-27T13:21:24;7.30;90.00
16412;DHT22;8315;52.104;6.304;2023-02-27T13:23:56;7.40;89.20
16412;DHT22;8315;52.104;6.304;2023-02-27T13:26:29;7.40;88.10
16412;DHT22;8315;52.104;6.304;2023-02-27T13:28:58;7.40;88.50
16412;DHT22;8315;52.104;6.304;2023-02-27T13:31:28;7.30;88.50
16412;DHT22;8315;52.104;6.304;2023-02-27T13:34:02;7.50;88.00
16412;DHT22;8315;52.104;6.304;2023-02-27T13:36:35;8.00;87.80
16412;DHT22;8315;52.104;6.304;2023-02-27T13:39:16;8.50;85.90
16412;DHT22;8315;52.104;6.304;2023-02-27T13:42:02;8.20;84.20
16412;DHT22;8315;52.104;6.304;2023-02-27T13:53:15;9.10;83.50
16412;DHT22;8315;52.104;6.304;2023-02-27T13:55:43;9.30;83.40
16412;DHT22;8315;52.104;6.304;2023-02-27T13:58:14;9.10;85.40
16412;DHT22;8315;52.104;6.304;2023-02-27T14:00:44;9.00;85.80
16412;DHT22;8315;52.104;6.304;2023-02-27T14:03:22;8.40;85.20
16412;DHT22;8315;52.104;6.304;2023-02-27T14:05:50;8.00;87.20
16412;DHT22;8315;52.104;6.304;2023-02-27T14:08:18;7.80;87.80
16412;DHT22;8315;52.104;6.304;2023-02-27T14:10:52;7.70;88.90
16412;DHT22;8315;52.104;6.304;2023-02-27T14:22:29;7.60;89.40
16412;DHT22;8315;52.104;6.304;2023-02-27T14:25:17;7.80;86.50
16412;DHT22;8315;52.104;6.304;2023-02-27T14:27:48;8.00;86.20
16412;DHT22;8315;52.104;6.304;2023-02-27T14:30:34;8.20;85.70
16412;DHT22;8315;52.104;6.304;2023-02-27T14:33:09;8.30;84.30
16412;DHT22;8315;52.104;6.304;2023-02-27T14:35:44;8.00;82.70
16412;DHT22;8315;52.104;6.304;2023-02-27T14:38:14;8.40;82.80
16412;DHT22;8315;52.104;6.304;2023-02-27T14:40:46;8.50;82.60
16412;DHT22;8315;52.104;6.304;2023-02-27T14:43:20;8.30;82.50
16412;DHT22;8315;52.104;6.304;2023-02-27T14:45:53;8.10;83.20
16412;DHT22;8315;52.104;6.304;2023-02-27T14:48:21;7.90;85.20
16412;DHT22;8315;52.104;6.304;2023-02-27T14:50:53;8.20;84.20
16412;DHT22;8315;52.104;6.304;2023-02-27T14:53:23;8.40;84.50
16412;DHT22;8315;52.104;6.304;2023-02-27T14:55:53;8.20;83.70
16412;DHT22;8315;52.104;6.304;2023-02-27T14:58:21;8.00;83.70
16412;DHT22;8315;52.104;6.304;2023-02-27T15:00:55;7.90;84.50
16412;DHT22;8315;52.104;6.304;2023-02-27T15:03:28;7.90;84.90
16412;DHT22;8315;52.104;6.304;2023-02-27T15:06:01;7.80;85.20
16412;DHT22;8315;52.104;6.304;2023-02-27T15:08:30;7.90;84.60
16412;DHT22;8315;52.104;6.304;2023-02-27T15:10:59;7.90;84.30
16412;DHT22;8315;52.104;6.304;2023-02-27T15:13:27;8.30;84.10
16412;DHT22;8315;52.104;6.304;2023-02-27T15:19:03;8.10;83.60
16412;DHT22;8315;52.104;6.304;2023-02-27T15:21:40;8.10;84.40
16412;DHT22;8315;52.104;6.304;2023-02-27T15:24:16;8.50;84.40
16412;DHT22;8315;52.104;6.304;2023-02-27T15:26:47;8.90;82.70
16412;DHT22;8315;52.104;6.304;2023-02-27T15:29:19;8.90;81.60
16412;DHT22;8315;52.104;6.304;2023-02-27T15:31:48;8.90;81.60
16412;DHT22;8315;52.104;6.304;2023-02-27T15:34:15;9.10;80.80
16412;DHT22;8315;52.104;6.304;2023-02-27T15:36:45;8.80;80.50
16412;DHT22;8315;52.104;6.304;2023-02-27T15:39:17;8.70;80.80
16412;DHT22;8315;52.104;6.304;2023-02-27T15:41:46;9.00;81.20
16412;DHT22;8315;52.104;6.304;2023-02-27T15:44:13;9.30;80.60
16412;DHT22;8315;52.104;6.304;2023-02-27T15:46:41;9.50;80.40
16412;DHT22;8315;52.104;6.304;2023-02-27T15:49:09;9.20;79.40
16412;DHT22;8315;52.104;6.304;2023-02-27T15:51:40;9.10;80.20
16412;DHT22;8315;52.104;6.304;2023-02-27T15:54:09;8.70;80.70
16412;DHT22;8315;52.104;6.304;2023-02-27T15:56:36;8.90;81.10
16412;DHT22;8315;52.104;6.304;2023-02-27T15:59:04;8.80;80.30
16412;DHT22;8315;52.104;6.304;2023-02-27T16:01:32;8.80;80.60
16412;DHT22;8315;52.104;6.304;2023-02-27T16:04:01;8.80;80.50
16412;DHT22;8315;52.104;6.304;2023-02-27T16:06:30;9.10;80.80
16412;DHT22;8315;52.104;6.304;2023-02-27T16:08:58;8.80;80.70
16412;DHT22;8315;52.104;6.304;2023-02-27T16:11:28;8.80;81.20
16412;DHT22;8315;52.104;6.304;2023-02-27T16:13:55;8.80;81.40
16412;DHT22;8315;52.104;6.304;2023-02-27T16:16:28;9.00;81.30
16412;DHT22;8315;52.104;6.304;2023-02-27T16:19:00;8.60;82.20
16412;DHT22;8315;52.104;6.304;2023-02-27T16:21:28;8.80;81.50
16412;DHT22;8315;52.104;6.304;2023-02-27T16:26:48;8.90;81.40
16412;DHT22;8315;52.104;6.304;2023-02-27T16:29:17;8.80;82.10
16412;DHT22;8315;52.104;6.304;2023-02-27T16:31:45;8.60;81.90
16412;DHT22;8315;52.104;6.304;2023-02-27T16:34:13;8.60;83.00
16412;DHT22;8315;52.104;6.304;2023-02-27T16:36:42;8.70;82.60
16412;DHT22;8315;52.104;6.304;2023-02-27T16:39:17;8.70;82.60
16412;DHT22;8315;52.104;6.304;2023-02-27T16:41:44;8.70;82.60
16412;DHT22;8315;52.104;6.304;2023-02-27T16:44:12;8.50;82.70
16412;DHT22;8315;52.104;6.304;2023-02-27T16:46:39;8.50;82.70
16412;DHT22;8315;52.104;6.304;2023-02-27T16:49:08;8.50;83.50
16412;DHT22;8315;52.104;6.304;2023-02-27T16:51:44;8.40;83.40
16412;DHT22;8315;52.104;6.304;2023-02-27T16:54:11;7.90;84.60
16412;DHT22;8315;52.104;6.304;2023-02-27T16:56:39;7.80;85.30
16412;DHT22;8315;52.104;6.304;2023-02-27T16:59:06;7.70;85.50